Time;durP1;ratioP1;P1;durP2;ratioP2;P2;SDS_P1;SDS_P2;PMS_P1;PMS_P2;Temp;Humidity;BMP_temperature;BMP_pressure;BME280_temperature;BME280_humidity;BME280_pressure;Samples;Min_cycle;Max_cycle;Signal;HPM_P1;HPM_P2
2022/07/11 00:01:10;;;;;;;;;;;;;;;25.00;43.99;102195.66;7284481;19;153808;-64
2022/07/11 00:03:37;;;;;;;;;;;;;;;24.95;44.07;102193.75;7280521;19;153319;-63
2022/07/11 00:06:05;;;;;;;;;;;;;;;24.96;44.09;102192.63;7277188;19;152351;-64
2022/07/11 00:08:31;;;;;;;;;;;;;;;24.94;44.39;102200.56;7275935;19;153088;-64
2022/07/11 00:10:58;;;;;;;;;;;;;;;24.88;44.26;102196.16;7281087;19;153352;-64
2022/07/11 00:13:25;;;;;;;;;;;;;;;24.96;44.04;102197.44;7278389;19;152965;-64
2022/07/11 00:15:52;;;;;;;;;;;;;;;24.98;44.27;102193.16;7280016;19;151909;-64
2022/07/11 00:18:18;;;;;;;;;;;;;;;25.05;44.18;102195.59;7279411;19;153498;-65
2022/07/11 00:20:45;;;;;;;;;;;;;;;25.02;44.21;102197.06;7275713;19;153519;-64
2022/07/11 00:23:12;;;;;;;;;;;;;;;25.04;43.90;102189.09;7283511;19;152316;-65
2022/07/11 00:25:38;;;;;;;;;;;;;;;25.08;43.94;102192.13;7277465;19;153748;-64
2022/07/11 00:28:05;;;;;;;;;;;;;;;25.03;43.88;102187.41;7278706;19;152285;-64
2022/07/11 00:30:32;;;;;;;;;;;;;;;24.99;44.50;102192.00;7278838;19;153344;-64
2022/07/11 00:32:59;;;;;;;;;;;;;;;24.97;44.11;102183.00;7279192;19;152243;-64
2022/07/11 00:35:25;;;;;;;;;;;;;;;24.97;44.07;102187.81;7278179;19;152152;-64
2022/07/11 00:37:52;;;;;;;;;;;;;;;25.10;43.73;102185.03;7276004;19;153128;-64
2022/07/11 00:40:19;;;;;;;;;;;;;;;25.06;44.09;102197.25;7276759;19;152980;-64
2022/07/11 00:42:46;;;;;;;;;;;;;;;24.98;43.95;102187.50;7280295;19;151954;-64
2022/07/11 00:45:13;;;;;;;;;;;;;;;25.01;43.68;102192.53;7286293;19;154287;-64
2022/07/11 00:47:39;;;;;;;;;;;;;;;25.05;43.76;102192.75;7279090;19;152597;-65
2022/07/11 00:50:07;;;;;;;;;;;;;;;25.02;44.32;102185.75;7278463;19;152317;-65
2022/07/11 00:52:34;;;;;;;;;;;;;;;24.99;44.29;102189.16;7276472;19;152131;-64
2022/07/11 00:55:01;;;;;;;;;;;;;;;25.02;43.99;102188.56;7276844;19;152564;-64
2022/07/11 00:57:28;;;;;;;;;;;;;;;25.07;43.56;102182.81;7278488;19;153189;-64
2022/07/11 00:59:55;;;;;;;;;;;;;;;25.11;43.96;102191.53;7277912;19;154180;-63
2022/07/11 01:02:22;;;;;;;;;;;;;;;25.00;44.06;102196.50;7274281;19;153578;-62
2022/07/11 01:04:49;;;;;;;;;;;;;;;25.00;43.72;102185.19;7275102;19;152067;-63
2022/07/11 01:07:16;;;;;;;;;;;;;;;25.06;44.07;102188.78;7280766;19;152676;-63
2022/07/11 01:09:43;;;;;;;;;;;;;;;25.11;43.96;102183.88;7275145;19;153504;-64
2022/07/11 01:12:09;;;;;;;;;;;;;;;25.09;44.22;102182.50;7276759;19;153186;-65
2022/07/11 01:14:36;;;;;;;;;;;;;;;25.11;44.01;102189.53;7278213;19;151975;-65
2022/07/11 01:17:03;;;;;;;;;;;;;;;25.07;44.17;102182.81;7277858;19;152857;-64
2022/07/11 01:19:30;;;;;;;;;;;;;;;25.06;43.80;102180.28;7276443;19;153510;-64
2022/07/11 01:21:58;;;;;;;;;;;;;;;25.03;43.50;102178.91;7274759;19;152611;-64
2022/07/11 01:24:24;;;;;;;;;;;;;;;24.99;43.92;102177.00;7275427;19;151962;-64
2022/07/11 01:26:52;;;;;;;;;;;;;;;25.06;44.01;102174.63;7283111;19;153915;-63
2022/07/11 01:29:18;;;;;;;;;;;;;;;25.08;43.86;102183.63;7275910;19;153346;-65
2022/07/11 01:31:45;;;;;;;;;;;;;;;25.02;44.10;102182.91;7275036;19;153365;-64
2022/07/11 01:34:13;;;;;;;;;;;;;;;25.03;43.64;102175.28;7284074;19;153313;-64
2022/07/11 01:36:39;;;;;;;;;;;;;;;25.02;43.80;102177.25;7283467;19;153616;-65
2022/07/11 01:39:06;;;;;;;;;;;;;;;25.02;44.08;102182.91;7279188;19;153705;-65
2022/07/11 01:41:33;;;;;;;;;;;;;;;25.02;43.63;102185.75;7283497;19;153992;-65
2022/07/11 01:44:00;;;;;;;;;;;;;;;25.03;43.99;102176.09;7284339;19;153380;-65
2022/07/11 01:46:27;;;;;;;;;;;;;;;25.05;43.97;102181.44;7283375;19;153015;-65
2022/07/11 01:48:54;;;;;;;;;;;;;;;25.03;43.91;102183.75;7288653;19;152015;-64
2022/07/11 01:51:25;;;;;;;;;;;;;;;25.00;43.89;102175.88;7281473;19;153560;-64
2022/07/11 01:53:52;;;;;;;;;;;;;;;25.03;43.39;102181.75;7281595;19;152543;-64
2022/07/11 01:56:19;;;;;;;;;;;;;;;25.06;43.66;102169.81;7284031;19;152635;-64
2022/07/11 01:58:51;;;;;;;;;;;;;;;25.05;43.95;102170.13;7282735;19;154101;-65
2022/07/11 02:01:18;;;;;;;;;;;;;;;25.06;44.38;102169.81;7280378;19;152617;-63
2022/07/11 02:03:55;;;;;;;;;;;;;;;25.10;43.87;102173.72;7282028;19;151873;-63
2022/07/11 02:06:22;;;;;;;;;;;;;;;25.09;43.60;102172.03;7279671;19;152643;-63
2022/07/11 02:08:49;;;;;;;;;;;;;;;25.10;43.77;102164.38;7279599;19;152455;-63
2022/07/11 02:11:16;;;;;;;;;;;;;;;25.06;43.82;102160.50;7285819;19;154717;-64
2022/07/11 02:13:42;;;;;;;;;;;;;;;25.03;43.97;102164.78;7284018;19;151846;-63
2022/07/11 02:16:10;;;;;;;;;;;;;;;25.03;43.33;102170.44;7283045;19;152764;-64
2022/07/11 02:18:37;;;;;;;;;;;;;;;25.10;44.01;102159.56;7281263;19;153049;-63
2022/07/11 02:21:04;;;;;;;;;;;;;;;25.08;43.73;102158.19;7280986;19;153462;-63
2022/07/11 02:23:31;;;;;;;;;;;;;;;25.11;43.92;102166.91;7280002;19;153827;-63
2022/07/11 02:25:58;;;;;;;;;;;;;;;25.13;43.98;102161.78;7278870;19;153327;-63
2022/07/11 02:28:25;;;;;;;;;;;;;;;25.06;44.02;102164.16;7279829;19;152021;-63
2022/07/11 02:30:52;;;;;;;;;;;;;;;25.07;44.34;102160.19;7280755;19;153873;-63
2022/07/11 02:33:18;;;;;;;;;;;;;;;25.10;44.07;102164.38;7289086;19;154103;-63
2022/07/11 02:35:48;;;;;;;;;;;;;;;25.04;44.15;102154.31;7282004;19;155203;-63
2022/07/11 02:38:15;;;;;;;;;;;;;;;25.07;43.99;102153.69;7279913;19;155710;-62
2022/07/11 02:40:42;;;;;;;;;;;;;;;25.08;44.22;102155.34;7282372;19;151974;-62
2022/07/11 02:43:09;;;;;;;;;;;;;;;25.05;43.74;102156.81;7281736;19;153338;-63
2022/07/11 02:45:36;;;;;;;;;;;;;;;25.06;44.25;102152.00;7281711;19;153857;-63
2022/07/11 02:48:03;;;;;;;;;;;;;;;25.06;44.04;102152.00;7282568;19;152149;-63
2022/07/11 02:50:30;;;;;;;;;;;;;;;25.09;44.26;102142.91;7280657;19;153106;-62
2022/07/11 02:52:56;;;;;;;;;;;;;;;25.06;44.09;102152.00;7281456;19;153643;-64
2022/07/11 02:55:23;;;;;;;;;;;;;;;25.09;44.02;102146.56;7289083;19;151825;-64
2022/07/11 02:57:50;;;;;;;;;;;;;;;25.07;44.01;102139.56;7281407;19;153044;-64
2022/07/11 03:00:17;;;;;;;;;;;;;;;25.09;43.90;102132.44;7281565;19;151905;-64
2022/07/11 03:02:44;;;;;;;;;;;;;;;25.08;44.15;102136.41;7279693;19;153702;-64
2022/07/11 03:05:12;;;;;;;;;;;;;;;25.08;43.59;102133.56;7279102;19;152554;-64
2022/07/11 03:07:39;;;;;;;;;;;;;;;25.10;43.42;102136.94;7279740;19;152223;-65
2022/07/11 03:10:06;;;;;;;;;;;;;;;25.04;43.95;102138.19;7278447;19;153198;-64
2022/07/11 03:12:33;;;;;;;;;;;;;;;25.04;43.82;102137.34;7278823;19;153794;-64
2022/07/11 03:14:59;;;;;;;;;;;;;;;25.10;43.76;102139.78;7289171;19;152114;-62
2022/07/11 03:17:26;;;;;;;;;;;;;;;24.96;43.51;102144.56;7281273;19;153764;-66
2022/07/11 03:19:53;;;;;;;;;;;;;;;24.98;42.63;102152.72;7280200;19;152142;-63
2022/07/11 03:22:20;;;;;;;;;;;;;;;24.97;43.09;102146.22;7279554;19;152900;-64
2022/07/11 03:24:47;;;;;;;;;;;;;;;24.99;42.62;102143.06;7278081;19;153329;-63
2022/07/11 03:27:13;;;;;;;;;;;;;;;25.01;42.79;102143.63;7280420;19;152292;-63
2022/07/11 03:29:40;;;;;;;;;;;;;;;24.92;42.80;102146.31;7278666;19;153200;-63
2022/07/11 03:32:10;;;;;;;;;;;;;;;24.93;42.49;102150.84;7279992;19;152636;-63
2022/07/11 03:34:37;;;;;;;;;;;;;;;24.93;42.81;102155.66;7279043;19;152064;-63
2022/07/11 03:37:04;;;;;;;;;;;;;;;24.90;43.22;102150.59;7285908;19;153629;-63
2022/07/11 03:39:31;;;;;;;;;;;;;;;24.94;43.09;102144.00;7279665;19;152257;-65
2022/07/11 03:41:58;;;;;;;;;;;;;;;24.98;42.84;102150.75;7280662;19;153822;-63
2022/07/11 03:44:24;;;;;;;;;;;;;;;24.96;42.68;102153.03;7280204;19;153218;-64
2022/07/11 03:46:51;;;;;;;;;;;;;;;24.96;42.65;102155.84;7281218;19;152978;-64
2022/07/11 03:49:18;;;;;;;;;;;;;;;24.97;42.66;102145.38;7280166;19;153406;-64
2022/07/11 03:51:45;;;;;;;;;;;;;;;24.87;42.86;102137.91;7277067;19;153055;-64
2022/07/11 03:54:12;;;;;;;;;;;;;;;24.84;42.87;102138.53;7276187;19;152914;-66
2022/07/11 03:56:38;;;;;;;;;;;;;;;24.87;42.84;102137.06;7278797;19;152288;-63
2022/07/11 03:59:09;;;;;;;;;;;;;;;24.86;42.99;102133.41;7286520;19;153370;-63
2022/07/11 04:01:36;;;;;;;;;;;;;;;24.82;43.24;102121.00;7279032;19;152036;-63
2022/07/11 04:04:03;;;;;;;;;;;;;;;24.87;42.99;102125.78;7278595;19;152290;-63
2022/07/11 04:06:30;;;;;;;;;;;;;;;24.79;43.39;102135.78;7279343;19;152117;-63
2022/07/11 04:09:02;;;;;;;;;;;;;;;24.79;43.14;102132.94;7276727;19;152841;-63
2022/07/11 04:11:29;;;;;;;;;;;;;;;24.89;42.92;102131.97;7278392;19;154564;-63
2022/07/11 04:13:55;;;;;;;;;;;;;;;24.84;43.28;102117.88;7280107;19;153926;-64
2022/07/11 04:16:22;;;;;;;;;;;;;;;24.84;43.15;102115.91;7279284;19;152659;-63
2022/07/11 04:18:49;;;;;;;;;;;;;;;24.81;43.08;102119.31;7278819;19;154466;-63
2022/07/11 04:21:16;;;;;;;;;;;;;;;24.83;42.80;102122.69;7285515;19;152175;-62
2022/07/11 04:23:42;;;;;;;;;;;;;;;24.74;43.06;102116.06;7277509;19;156059;-63
2022/07/11 04:26:10;;;;;;;;;;;;;;;24.79;43.16;102110.34;7279027;19;152041;-63
2022/07/11 04:28:37;;;;;;;;;;;;;;;24.76;42.98;102116.59;7280169;19;153021;-63
2022/07/11 04:31:03;;;;;;;;;;;;;;;24.77;42.77;102115.44;7277761;19;152425;-62
2022/07/11 04:33:30;;;;;;;;;;;;;;;24.78;43.00;102108.66;7279370;19;153654;-62
2022/07/11 04:35:57;;;;;;;;;;;;;;;24.80;43.27;102106.38;7278831;19;153051;-62
2022/07/11 04:38:24;;;;;;;;;;;;;;;24.76;42.97;102108.09;7275448;19;152488;-62
2022/07/11 04:40:50;;;;;;;;;;;;;;;24.83;42.82;102113.38;7278943;19;151869;-63
2022/07/11 04:43:17;;;;;;;;;;;;;;;24.77;42.71;102118.28;7286455;19;152606;-62
2022/07/11 04:45:44;;;;;;;;;;;;;;;24.78;43.17;102109.50;7278754;19;152166;-63
2022/07/11 04:48:11;;;;;;;;;;;;;;;24.82;43.46;102106.88;7278662;19;153560;-63
2022/07/11 04:50:37;;;;;;;;;;;;;;;24.72;43.06;102109.88;7273757;19;153937;-62
2022/07/11 04:53:04;;;;;;;;;;;;;;;24.65;43.44;102100.97;7278227;19;152091;-62
2022/07/11 04:55:31;;;;;;;;;;;;;;;24.78;42.89;102111.47;7277731;19;152968;-62
2022/07/11 04:57:58;;;;;;;;;;;;;;;24.73;43.17;102108.72;7276479;19;154302;-63
2022/07/11 05:00:24;;;;;;;;;;;;;;;24.71;43.70;102105.38;7277601;19;152593;-65
2022/07/11 05:02:51;;;;;;;;;;;;;;;24.61;43.13;102112.06;7275871;19;153535;-65
2022/07/11 05:05:19;;;;;;;;;;;;;;;24.66;43.18;102111.97;7281419;19;152918;-65
2022/07/11 05:07:46;;;;;;;;;;;;;;;24.65;43.32;102110.28;7285058;19;153311;-65
2022/07/11 05:10:13;;;;;;;;;;;;;;;24.67;43.24;102112.78;7280747;19;153244;-65
2022/07/11 05:12:40;;;;;;;;;;;;;;;24.66;43.28;102114.78;7285730;19;152591;-64
2022/07/11 05:15:07;;;;;;;;;;;;;;;24.68;43.27;102117.28;7282951;19;153336;-64
2022/07/11 05:17:35;;;;;;;;;;;;;;;24.68;43.61;102120.13;7283959;19;154773;-64
2022/07/11 05:20:02;;;;;;;;;;;;;;;24.62;43.69;102119.34;7283862;19;152487;-64
2022/07/11 05:22:29;;;;;;;;;;;;;;;24.66;44.08;102123.28;7284387;19;152793;-64
2022/07/11 05:24:56;;;;;;;;;;;;;;;24.70;43.90;102121.50;7290244;19;153521;-64
2022/07/11 05:27:22;;;;;;;;;;;;;;;24.68;43.76;102125.78;7283265;19;152425;-64
2022/07/11 05:29:49;;;;;;;;;;;;;;;24.69;43.68;102142.44;7282143;19;154079;-64
2022/07/11 05:32:16;;;;;;;;;;;;;;;24.68;43.65;102140.75;7284441;19;152069;-64
2022/07/11 05:34:42;;;;;;;;;;;;;;;24.65;44.25;102135.72;7282902;19;152237;-64
2022/07/11 05:37:09;;;;;;;;;;;;;;;24.70;44.16;102138.47;7281884;19;152631;-64
2022/07/11 05:39:36;;;;;;;;;;;;;;;24.73;44.17;102131.34;7280862;19;152255;-63
2022/07/11 05:42:03;;;;;;;;;;;;;;;24.69;44.02;102131.13;7284161;19;153398;-64
2022/07/11 05:44:29;;;;;;;;;;;;;;;24.68;44.41;102134.25;7282879;19;153294;-64
2022/07/11 05:47:00;;;;;;;;;;;;;;;24.67;44.24;102132.56;7291562;19;152204;-63
2022/07/11 05:49:27;;;;;;;;;;;;;;;24.73;44.52;102128.53;7282443;19;153568;-63
2022/07/11 05:51:54;;;;;;;;;;;;;;;24.73;44.26;102131.34;7283231;19;152272;-64
2022/07/11 05:54:21;;;;;;;;;;;;;;;24.74;44.28;102135.84;7282565;19;152066;-64
2022/07/11 05:56:47;;;;;;;;;;;;;;;24.71;43.89;102139.31;7282061;19;153878;-64
2022/07/11 05:59:14;;;;;;;;;;;;;;;24.71;43.86;102144.97;7283409;19;152977;-64
2022/07/11 06:01:41;;;;;;;;;;;;;;;24.71;44.11;102139.31;7280689;19;152961;-64
2022/07/11 06:04:08;;;;;;;;;;;;;;;24.73;43.51;102142.66;7282310;19;152632;-64
2022/07/11 06:06:35;;;;;;;;;;;;;;;24.71;43.85;102134.47;7281960;19;153744;-64
2022/07/11 06:09:01;;;;;;;;;;;;;;;24.70;44.61;102141.28;7288329;19;153506;-64
2022/07/11 06:11:28;;;;;;;;;;;;;;;24.72;44.16;102146.63;7279759;19;152035;-64
2022/07/11 06:13:55;;;;;;;;;;;;;;;24.71;44.30;102150.63;7283843;19;154165;-63
2022/07/11 06:16:26;;;;;;;;;;;;;;;24.67;44.54;102156.03;7280631;19;153986;-62
2022/07/11 06:18:52;;;;;;;;;;;;;;;24.73;44.02;102153.97;7280961;19;152725;-64
2022/07/11 06:21:22;;;;;;;;;;;;;;;24.73;44.51;102157.63;7281504;19;152904;-65
2022/07/11 06:23:49;;;;;;;;;;;;;;;24.58;43.58;102160.69;7280394;19;154054;-64
2022/07/11 06:26:16;;;;;;;;;;;;;;;24.46;42.27;102160.31;7282150;19;153195;-64
2022/07/11 06:28:42;;;;;;;;;;;;;;;24.35;42.15;102162.44;7283217;19;152642;-64
2022/07/11 06:31:09;;;;;;;;;;;;;;;24.25;42.13;102165.44;7286144;19;152615;-64
2022/07/11 06:33:37;;;;;;;;;;;;;;;24.22;42.19;102165.19;7280907;19;152970;-64
2022/07/11 06:36:04;;;;;;;;;;;;;;;24.20;42.11;102162.69;7279696;19;153895;-64
2022/07/11 06:38:31;;;;;;;;;;;;;;;24.22;41.96;102160.38;7279284;19;152036;-65
2022/07/11 06:40:58;;;;;;;;;;;;;;;24.20;42.31;102162.69;7280989;19;152220;-65
2022/07/11 06:43:25;;;;;;;;;;;;;;;24.15;42.78;102159.06;7281911;19;152909;-65
2022/07/11 06:45:52;;;;;;;;;;;;;;;24.21;42.06;102164.34;7279859;19;151742;-65
2022/07/11 06:48:20;;;;;;;;;;;;;;;24.16;42.16;102166.44;7282854;19;154768;-65
2022/07/11 06:50:48;;;;;;;;;;;;;;;24.08;42.40;102167.91;7276869;19;154202;-65
2022/07/11 06:53:15;;;;;;;;;;;;;;;24.12;42.08;102165.31;7286147;19;152799;-65
2022/07/11 06:55:41;;;;;;;;;;;;;;;24.10;42.01;102173.25;7279570;19;152409;-65
2022/07/11 06:58:08;;;;;;;;;;;;;;;24.10;42.16;102174.09;7283330;19;151955;-65
2022/07/11 07:00:51;;;;;;;;;;;;;;;24.02;42.17;102171.09;7280561;19;152607;-65
2022/07/11 07:03:17;;;;;;;;;;;;;;;23.98;42.43;102176.53;7281173;19;152684;-65
2022/07/11 07:05:46;;;;;;;;;;;;;;;23.95;42.66;102168.63;7276798;19;153006;-65
2022/07/11 07:08:16;;;;;;;;;;;;;;;23.94;42.49;102175.41;7280673;19;153121;-65
2022/07/11 07:10:43;;;;;;;;;;;;;;;23.94;42.46;102164.13;7278667;19;154135;-65
2022/07/11 07:13:10;;;;;;;;;;;;;;;23.93;43.05;102170.94;7282124;19;151796;-65
2022/07/11 07:15:37;;;;;;;;;;;;;;;23.94;42.76;102169.78;7287916;19;152507;-65
2022/07/11 07:18:03;;;;;;;;;;;;;;;23.94;43.20;102175.41;7280062;19;152183;-65
2022/07/11 07:20:30;;;;;;;;;;;;;;;23.91;42.97;102165.59;7277493;19;153592;-65
2022/07/11 07:22:57;;;;;;;;;;;;;;;23.96;43.35;102173.16;7279921;19;154604;-65
2022/07/11 07:25:25;;;;;;;;;;;;;;;24.02;43.21;102174.78;7278939;19;153388;-65
2022/07/11 07:27:52;;;;;;;;;;;;;;;24.06;43.16;102169.34;7282539;19;153086;-58
2022/07/11 07:30:19;;;;;;;;;;;;;;;23.99;42.90;102178.19;7275746;19;154363;-65
2022/07/11 07:32:46;;;;;;;;;;;;;;;23.96;43.38;102177.94;7282061;19;152108;-65
2022/07/11 07:35:13;;;;;;;;;;;;;;;24.00;43.02;102171.41;7285007;19;152037;-64
2022/07/11 07:37:39;;;;;;;;;;;;;;;23.94;43.10;102175.41;7281744;19;152195;-64
2022/07/11 07:40:06;;;;;;;;;;;;;;;23.93;43.42;102176.59;7280476;19;153305;-65
2022/07/11 07:42:33;;;;;;;;;;;;;;;23.92;43.30;102170.09;7276982;19;153170;-65
2022/07/11 07:45:01;;;;;;;;;;;;;;;23.93;43.05;102170.94;7281534;19;153975;-65
2022/07/11 07:47:29;;;;;;;;;;;;;;;23.92;43.15;102172.06;7280203;19;152185;-65
2022/07/11 07:49:56;;;;;;;;;;;;;;;23.96;43.23;102178.78;7275930;19;153952;-65
2022/07/11 07:52:23;;;;;;;;;;;;;;;23.95;43.73;102174.28;7279358;19;153959;-65
2022/07/11 07:54:49;;;;;;;;;;;;;;;23.94;43.50;102172.59;7280206;19;152615;-64
2022/07/11 07:57:16;;;;;;;;;;;;;;;23.92;43.19;102164.44;7286478;19;153814;-64
2022/07/11 07:59:43;;;;;;;;;;;;;;;23.96;43.52;102164.69;7281027;19;152651;-64
2022/07/11 08:02:09;;;;;;;;;;;;;;;23.96;43.70;102169.47;7276489;19;152307;-65
2022/07/11 08:04:37;;;;;;;;;;;;;;;23.96;43.52;102163.84;7277301;19;152659;-64
2022/07/11 08:07:04;;;;;;;;;;;;;;;24.03;43.12;102162.31;7279363;19;152851;-64
2022/07/11 08:09:30;;;;;;;;;;;;;;;24.04;42.77;102168.81;7278309;19;154061;-65
2022/07/11 08:11:57;;;;;;;;;;;;;;;23.99;42.95;102164.06;7275897;19;151751;-65
2022/07/11 08:14:24;;;;;;;;;;;;;;;23.96;43.68;102159.03;7279771;19;151978;-66
2022/07/11 08:16:51;;;;;;;;;;;;;;;23.97;43.43;102166.38;7279465;19;153344;-65
2022/07/11 08:19:18;;;;;;;;;;;;;;;24.00;43.34;102165.75;7287652;19;152037;-65
2022/07/11 08:21:45;;;;;;;;;;;;;;;23.99;43.55;102164.06;7277133;19;155119;-65
2022/07/11 08:24:12;;;;;;;;;;;;;;;23.96;43.47;102175.13;7278312;19;153246;-65
2022/07/11 08:26:38;;;;;;;;;;;;;;;23.96;44.02;102164.69;7277498;19;152860;-65
2022/07/11 08:29:15;;;;;;;;;;;;;;;24.00;43.68;102160.09;7278877;19;154312;-64
2022/07/11 08:31:44;;;;;;;;;;;;;;;23.99;43.76;102161.25;7273094;19;153989;-65
2022/07/11 08:34:11;;;;;;;;;;;;;;;23.99;43.71;102164.06;7279168;19;154051;-64
2022/07/11 08:36:42;;;;;;;;;;;;;;;23.99;43.82;102155.59;7276372;19;152844;-65
2022/07/11 08:39:12;;;;;;;;;;;;;;;24.02;43.72;102151.34;7278441;19;152913;-64
2022/07/11 08:41:42;;;;;;;;;;;;;;;24.01;43.66;102158.13;7287457;19;152557;-64
2022/07/11 08:44:10;;;;;;;;;;;;;;;24.02;44.23;102148.50;7287172;19;152019;-65
2022/07/11 08:46:40;;;;;;;;;;;;;;;24.02;44.24;102166.31;7283358;19;152169;-65
2022/07/11 08:49:07;;;;;;;;;;;;;;;24.05;43.68;102159.19;7284574;19;152767;-65
2022/07/11 08:51:36;;;;;;;;;;;;;;;24.05;44.03;102162.03;7280322;19;152265;-65
2022/07/11 08:54:03;;;;;;;;;;;;;;;24.07;43.75;102152.13;7281684;19;152154;-65
2022/07/11 08:56:30;;;;;;;;;;;;;;;24.10;43.74;102156.31;7283486;19;153974;-64
2022/07/11 08:59:01;;;;;;;;;;;;;;;24.13;43.45;102153.72;7286480;19;151961;-65
2022/07/11 09:01:36;;;;;;;;;;;;;;;24.18;43.43;102164.97;7282914;19;154129;-65
2022/07/11 09:04:06;;;;;;;;;;;;;;;24.17;43.72;102157.63;7290374;19;152774;-65
2022/07/11 09:06:35;;;;;;;;;;;;;;;24.17;43.89;102157.63;7284800;19;153558;-65
2022/07/11 09:09:11;;;;;;;;;;;;;;;24.19;43.83;102154.50;7281513;19;153327;-64
2022/07/11 09:11:49;;;;;;;;;;;;;;;24.22;43.50;102157.56;7283703;19;151974;-64
2022/07/11 09:14:29;;;;;;;;;;;;;;;24.26;43.59;102150.16;7284911;19;152648;-65
2022/07/11 09:17:00;;;;;;;;;;;;;;;24.24;44.02;102146.81;7283188;19;154606;-64
2022/07/11 09:19:27;;;;;;;;;;;;;;;24.30;43.64;102144.75;7284406;19;152074;-65
2022/07/11 09:27:49;;;;;;;;;;;;;;;24.36;43.87;102150.00;7292091;19;151938;-65
2022/07/11 09:30:16;;;;;;;;;;;;;;;24.41;43.17;102140.63;7282215;19;154329;-65
2022/07/11 09:32:54;;;;;;;;;;;;;;;24.44;43.77;102145.66;7283300;19;152470;-65
2022/07/11 09:35:22;;;;;;;;;;;;;;;24.48;43.67;102140.25;7280335;19;152859;-65
2022/07/11 09:37:48;;;;;;;;;;;;;;;24.45;43.68;102130.38;7280322;19;152545;-64
2022/07/11 09:40:19;;;;;;;;;;;;;;;24.48;43.91;102141.09;7282888;19;152831;-65
2022/07/11 09:42:55;;;;;;;;;;;;;;;24.50;43.78;102143.59;7284939;19;153484;-64
2022/07/11 09:45:24;;;;;;;;;;;;;;;24.54;43.62;102134.19;7282872;19;156289;-65
2022/07/11 09:47:52;;;;;;;;;;;;;;;24.55;43.74;102132.22;7292401;19;152390;-64
2022/07/11 09:50:18;;;;;;;;;;;;;;;24.58;43.92;102137.25;7281894;19;153569;-65
2022/07/11 09:53:05;;;;;;;;;;;;;;;24.61;43.52;102120.53;7279144;19;152814;-65
2022/07/11 09:55:58;;;;;;;;;;;;;;;24.60;43.87;102132.97;7282853;19;152458;-64
2022/07/11 09:58:28;;;;;;;;;;;;;;;24.61;43.69;102123.34;7283155;19;153448;-64
2022/07/11 10:00:55;;;;;;;;;;;;;;;24.64;43.65;102121.88;7280437;19;153075;-64
2022/07/11 10:03:25;;;;;;;;;;;;;;;24.67;43.69;102110.78;7284629;19;152956;-65
2022/07/11 10:06:11;;;;;;;;;;;;;;;24.69;43.69;102118.97;7278827;19;157148;-65
2022/07/11 10:08:38;;;;;;;;;;;;;;;24.72;43.63;102112.69;7280690;19;152232;-64
2022/07/11 10:11:05;;;;;;;;;;;;;;;24.74;43.52;102119.75;7288652;19;152359;-65
2022/07/11 10:13:32;;;;;;;;;;;;;;;24.78;43.33;102117.97;7281336;19;153147;-65
2022/07/11 10:16:00;;;;;;;;;;;;;;;24.85;43.36;102116.75;7282794;19;152199;-65
2022/07/11 10:18:46;;;;;;;;;;;;;;;24.85;43.64;102119.56;7283241;19;153264;-65
2022/07/11 10:21:17;;;;;;;;;;;;;;;24.87;43.37;102108.81;7281877;19;153530;-65
2022/07/11 10:23:44;;;;;;;;;;;;;;;24.87;43.26;102098.34;7281644;19;153295;-65
2022/07/11 10:26:14;;;;;;;;;;;;;;;24.91;43.31;102102.22;7280252;19;154019;-65
2022/07/11 10:28:56;;;;;;;;;;;;;;;24.91;43.38;102098.56;7283318;19;152017;-65
2022/07/11 10:31:24;;;;;;;;;;;;;;;24.93;43.13;102099.94;7280818;19;152335;-65
2022/07/11 10:34:18;;;;;;;;;;;;;;;24.93;43.05;102097.09;7288450;19;155950;-65
2022/07/11 10:36:45;;;;;;;;;;;;;;;24.98;43.14;102097.03;7281193;19;153162;-65
2022/07/11 10:39:12;;;;;;;;;;;;;;;25.01;43.01;102104.03;7280027;19;153348;-66
2022/07/11 10:41:39;;;;;;;;;;;;;;;25.02;42.90;102100.06;7281708;19;151616;-65
2022/07/11 10:44:06;;;;;;;;;;;;;;;25.03;42.76;102104.56;7281991;19;152199;-65
2022/07/11 10:46:34;;;;;;;;;;;;;;;25.07;42.77;102100.81;7281170;19;153212;-65
2022/07/11 10:49:14;;;;;;;;;;;;;;;25.11;43.01;102090.53;7282312;19;154723;-65
2022/07/11 10:51:40;;;;;;;;;;;;;;;25.12;42.70;102094.22;7280992;19;152703;-65
2022/07/11 10:54:42;;;;;;;;;;;;;;;25.13;42.79;102095.88;7278997;19;154926;-64
2022/07/11 10:57:28;;;;;;;;;;;;;;;25.14;42.86;102098.41;7289103;19;152452;-65
2022/07/11 10:59:58;;;;;;;;;;;;;;;25.17;42.75;102094.94;7282527;19;153489;-65
2022/07/11 11:02:26;;;;;;;;;;;;;;;25.19;42.74;102103.13;7277395;19;151908;-65
2022/07/11 11:04:57;;;;;;;;;;;;;;;25.20;42.80;102108.47;7278240;19;152344;-65
2022/07/11 11:07:41;;;;;;;;;;;;;;;25.24;42.25;102103.88;7278549;19;153525;-65
2022/07/11 11:10:16;;;;;;;;;;;;;;;25.26;42.46;102099.88;7277062;19;152308;-65
2022/07/11 11:13:06;;;;;;;;;;;;;;;25.28;42.27;102094.75;7279641;19;152321;-65
2022/07/11 11:15:35;;;;;;;;;;;;;;;25.31;41.93;102096.94;7279193;19;153573;-64
2022/07/11 11:18:21;;;;;;;;;;;;;;;25.33;42.13;102094.66;7281996;19;152773;-64
2022/07/11 11:21:09;;;;;;;;;;;;;;;25.34;42.05;102087.84;7285818;19;153518;-65
2022/07/11 11:23:39;;;;;;;;;;;;;;;25.35;41.48;102075.38;7277535;19;152156;-65
2022/07/11 11:26:11;;;;;;;;;;;;;;;25.35;41.44;102081.84;7278644;19;152976;-64
2022/07/11 11:28:53;;;;;;;;;;;;;;;25.37;41.82;102071.06;7279391;19;155184;-65
2022/07/11 11:31:20;;;;;;;;;;;;;;;25.37;41.60;102073.06;7280127;19;152251;-64
2022/07/11 11:33:47;;;;;;;;;;;;;;;25.38;41.31;102077.56;7281108;19;152845;-65
2022/07/11 11:36:20;;;;;;;;;;;;;;;25.39;41.14;102063.13;7277827;19;154016;-65
2022/07/11 11:38:47;;;;;;;;;;;;;;;25.39;41.44;102065.09;7279663;19;152571;-64
2022/07/11 11:41:24;;;;;;;;;;;;;;;25.41;41.30;102066.44;7280192;19;152276;-65
2022/07/11 11:43:52;;;;;;;;;;;;;;;25.38;41.38;102060.59;7288363;19;151731;-65
2022/07/11 11:46:19;;;;;;;;;;;;;;;25.38;41.60;102061.44;7280155;19;152318;-65
2022/07/11 11:48:46;;;;;;;;;;;;;;;25.41;41.32;102062.78;7279737;19;153603;-65
2022/07/11 11:51:14;;;;;;;;;;;;;;;25.41;41.77;102057.13;7278181;19;151854;-65
2022/07/11 11:53:41;;;;;;;;;;;;;;;25.42;41.10;102058.81;7275807;19;155514;-65
2022/07/11 11:56:15;;;;;;;;;;;;;;;25.44;41.46;102059.34;7278412;19;153643;-65
2022/07/11 11:58:45;;;;;;;;;;;;;;;25.47;41.39;102053.03;7278750;19;151732;-65
2022/07/11 12:01:12;;;;;;;;;;;;;;;25.47;41.88;102053.88;7278998;19;152499;-65
2022/07/11 12:03:52;;;;;;;;;;;;;;;25.47;41.61;102053.03;7286343;19;152992;-65
2022/07/11 12:06:26;;;;;;;;;;;;;;;25.43;42.03;102050.00;7279075;19;154296;-65
2022/07/11 12:08:58;;;;;;;;;;;;;;;25.45;41.77;102041.19;7277659;19;154160;-65
2022/07/11 12:11:24;;;;;;;;;;;;;;;25.44;41.40;102051.66;7279577;19;152241;-65
2022/07/11 12:14:02;;;;;;;;;;;;;;;25.50;41.31;102050.41;7277900;19;153019;-65
2022/07/11 12:16:41;;;;;;;;;;;;;;;25.54;41.41;102054.31;7276801;19;153954;-65
2022/07/11 12:19:19;;;;;;;;;;;;;;;25.57;41.22;102055.69;7279935;19;152333;-65
2022/07/11 12:21:47;;;;;;;;;;;;;;;25.56;40.94;102051.19;7276894;19;152974;-65
2022/07/11 12:24:18;;;;;;;;;;;;;;;25.55;41.13;102043.84;7277631;19;153508;-65
2022/07/11 12:26:44;;;;;;;;;;;;;;;25.54;41.07;102043.00;7285262;19;151836;-65
2022/07/11 12:29:12;;;;;;;;;;;;;;;25.55;40.85;102041.00;7278327;19;152988;-65
2022/07/11 12:31:45;;;;;;;;;;;;;;;25.57;40.94;102044.38;7278112;19;153073;-65
2022/07/11 12:34:12;;;;;;;;;;;;;;;25.57;40.86;102038.72;7277274;19;152638;-64
2022/07/11 12:36:39;;;;;;;;;;;;;;;25.54;40.59;102050.63;7275429;19;153824;-65
2022/07/11 12:39:08;;;;;;;;;;;;;;;25.54;40.98;102040.16;7277399;19;155334;-65
2022/07/11 12:41:42;;;;;;;;;;;;;;;25.53;40.66;102029.94;7278578;19;153496;-65